sensor_id;sensor_type;location;lat;lon;timestamp;P1;durP1;ratioP1;P2;durP2;ratioP2
69551;SDS011;58993;45.320;11.864;2022-09-09T00:04:05;19.80;;;9.80;;
69551;SDS011;58993;45.320;11.864;2022-09-09T00:06:43;23.80;;;11.70;;
69551;SDS011;58993;45.320;11.864;2022-09-09T00:22:55;34.00;;;19.30;;
69551;SDS011;58993;45.320;11.864;2022-09-09T00:25:40;43.20;;;22.10;;
69551;SDS011;58993;45.320;11.864;2022-09-09T00:28:17;43.90;;;24.10;;
69551;SDS011;58993;45.320;11.864;2022-09-09T00:30:44;43.60;;;23.10;;
69551;SDS011;58993;45.320;11.864;2022-09-09T00:33:13;41.40;;;21.40;;
69551;SDS011;58993;45.320;11.864;2022-09-09T00:35:45;38.80;;;22.10;;
69551;SDS011;58993;45.320;11.864;2022-09-09T00:38:14;45.10;;;21.90;;
69551;SDS011;58993;45.320;11.864;2022-09-09T00:40:50;39.10;;;20.80;;
69551;SDS011;58993;45.320;11.864;2022-09-09T01:08:35;13.40;;;6.20;;
69551;SDS011;58993;45.320;11.864;2022-09-09T01:17:21;10.60;;;4.30;;
69551;SDS011;58993;45.320;11.864;2022-09-09T01:28:21;7.40;;;4.40;;
69551;SDS011;58993;45.320;11.864;2022-09-09T01:30:50;8.60;;;4.00;;
69551;SDS011;58993;45.320;11.864;2022-09-09T01:33:16;9.70;;;4.20;;
69551;SDS011;58993;45.320;11.864;2022-09-09T01:38:12;7.70;;;3.90;;
69551;SDS011;58993;45.320;11.864;2022-09-09T01:40:39;7.00;;;4.00;;
69551;SDS011;58993;45.320;11.864;2022-09-09T01:43:04;6.70;;;4.20;;
69551;SDS011;58993;45.320;11.864;2022-09-09T01:45:31;6.90;;;3.90;;
69551;SDS011;58993;45.320;11.864;2022-09-09T01:47:57;6.50;;;3.50;;
69551;SDS011;58993;45.320;11.864;2022-09-09T01:50:24;7.30;;;3.90;;
69551;SDS011;58993;45.320;11.864;2022-09-09T01:52:50;6.30;;;3.60;;
69551;SDS011;58993;45.320;11.864;2022-09-09T01:55:20;7.80;;;3.80;;
69551;SDS011;58993;45.320;11.864;2022-09-09T01:58:03;8.80;;;4.10;;
69551;SDS011;58993;45.320;11.864;2022-09-09T02:00:38;8.40;;;3.70;;
69551;SDS011;58993;45.320;11.864;2022-09-09T02:03:26;8.00;;;4.00;;
69551;SDS011;58993;45.320;11.864;2022-09-09T02:08:49;8.50;;;4.20;;
69551;SDS011;58993;45.320;11.864;2022-09-09T02:11:21;6.10;;;3.90;;
69551;SDS011;58993;45.320;11.864;2022-09-09T02:13:50;7.70;;;4.30;;
69551;SDS011;58993;45.320;11.864;2022-09-09T02:16:23;10.10;;;4.60;;
69551;SDS011;58993;45.320;11.864;2022-09-09T02:21:32;7.40;;;5.00;;
69551;SDS011;58993;45.320;11.864;2022-09-09T02:24:00;8.10;;;4.80;;
69551;SDS011;58993;45.320;11.864;2022-09-09T02:26:29;6.90;;;5.00;;
69551;SDS011;58993;45.320;11.864;2022-09-09T02:28:58;8.60;;;4.70;;
69551;SDS011;58993;45.320;11.864;2022-09-09T02:31:28;7.90;;;4.90;;
69551;SDS011;58993;45.320;11.864;2022-09-09T02:34:00;8.50;;;5.20;;
69551;SDS011;58993;45.320;11.864;2022-09-09T02:36:29;10.80;;;5.30;;
69551;SDS011;58993;45.320;11.864;2022-09-09T02:38:58;9.20;;;5.10;;
69551;SDS011;58993;45.320;11.864;2022-09-09T02:41:43;8.80;;;5.00;;
69551;SDS011;58993;45.320;11.864;2022-09-09T02:44:12;7.60;;;5.10;;
69551;SDS011;58993;45.320;11.864;2022-09-09T02:52:15;7.50;;;4.50;;
69551;SDS011;58993;45.320;11.864;2022-09-09T02:54:45;9.20;;;5.00;;
69551;SDS011;58993;45.320;11.864;2022-09-09T02:59:49;7.30;;;4.00;;
69551;SDS011;58993;45.320;11.864;2022-09-09T03:02:17;7.00;;;3.90;;
69551;SDS011;58993;45.320;11.864;2022-09-09T03:04:43;8.50;;;3.80;;
69551;SDS011;58993;45.320;11.864;2022-09-09T03:07:09;9.60;;;3.80;;
69551;SDS011;58993;45.320;11.864;2022-09-09T03:09:36;7.40;;;3.90;;
69551;SDS011;58993;45.320;11.864;2022-09-09T03:12:01;6.40;;;3.50;;
69551;SDS011;58993;45.320;11.864;2022-09-09T03:14:29;7.00;;;3.80;;
69551;SDS011;58993;45.320;11.864;2022-09-09T03:16:55;5.60;;;3.40;;
69551;SDS011;58993;45.320;11.864;2022-09-09T03:19:23;6.20;;;3.70;;
69551;SDS011;58993;45.320;11.864;2022-09-09T03:21:49;5.40;;;3.10;;
69551;SDS011;58993;45.320;11.864;2022-09-09T03:24:15;7.70;;;3.50;;
69551;SDS011;58993;45.320;11.864;2022-09-09T03:26:40;5.10;;;2.90;;
69551;SDS011;58993;45.320;11.864;2022-09-09T03:29:09;5.50;;;3.00;;
69551;SDS011;58993;45.320;11.864;2022-09-09T03:31:38;4.30;;;2.80;;
69551;SDS011;58993;45.320;11.864;2022-09-09T03:34:04;5.30;;;3.10;;
69551;SDS011;58993;45.320;11.864;2022-09-09T03:36:30;6.90;;;2.90;;
69551;SDS011;58993;45.320;11.864;2022-09-09T03:38:56;5.60;;;3.00;;
69551;SDS011;58993;45.320;11.864;2022-09-09T03:41:23;5.60;;;3.00;;
69551;SDS011;58993;45.320;11.864;2022-09-09T03:43:53;5.60;;;2.80;;
69551;SDS011;58993;45.320;11.864;2022-09-09T03:46:19;6.50;;;2.90;;
69551;SDS011;58993;45.320;11.864;2022-09-09T03:48:47;5.70;;;2.80;;
69551;SDS011;58993;45.320;11.864;2022-09-09T03:51:12;7.80;;;3.20;;
69551;SDS011;58993;45.320;11.864;2022-09-09T03:53:38;7.80;;;3.40;;
69551;SDS011;58993;45.320;11.864;2022-09-09T03:56:05;6.00;;;3.40;;
69551;SDS011;58993;45.320;11.864;2022-09-09T03:58:32;3.80;;;2.70;;
69551;SDS011;58993;45.320;11.864;2022-09-09T04:00:59;6.20;;;3.40;;
69551;SDS011;58993;45.320;11.864;2022-09-09T04:03:30;5.60;;;3.20;;
69551;SDS011;58993;45.320;11.864;2022-09-09T04:05:57;6.70;;;3.00;;
69551;SDS011;58993;45.320;11.864;2022-09-09T04:08:24;6.10;;;3.40;;
69551;SDS011;58993;45.320;11.864;2022-09-09T04:10:51;4.60;;;3.10;;
69551;SDS011;58993;45.320;11.864;2022-09-09T04:13:17;5.60;;;3.50;;
69551;SDS011;58993;45.320;11.864;2022-09-09T04:15:50;6.40;;;3.20;;
69551;SDS011;58993;45.320;11.864;2022-09-09T04:18:17;5.60;;;3.00;;
69551;SDS011;58993;45.320;11.864;2022-09-09T04:20:42;6.50;;;3.40;;
69551;SDS011;58993;45.320;11.864;2022-09-09T04:23:10;7.50;;;3.00;;
69551;SDS011;58993;45.320;11.864;2022-09-09T04:25:36;5.90;;;2.80;;
69551;SDS011;58993;45.320;11.864;2022-09-09T04:28:02;6.40;;;3.30;;
69551;SDS011;58993;45.320;11.864;2022-09-09T04:30:28;5.10;;;3.00;;
69551;SDS011;58993;45.320;11.864;2022-09-09T04:32:54;5.70;;;3.00;;
69551;SDS011;58993;45.320;11.864;2022-09-09T04:35:19;5.00;;;2.50;;
69551;SDS011;58993;45.320;11.864;2022-09-09T04:37:45;6.90;;;3.00;;
69551;SDS011;58993;45.320;11.864;2022-09-09T04:40:11;5.20;;;2.80;;
69551;SDS011;58993;45.320;11.864;2022-09-09T04:42:37;5.80;;;3.30;;
69551;SDS011;58993;45.320;11.864;2022-09-09T04:45:03;5.70;;;3.00;;
69551;SDS011;58993;45.320;11.864;2022-09-09T04:47:31;7.60;;;3.00;;
69551;SDS011;58993;45.320;11.864;2022-09-09T04:49:56;5.40;;;2.50;;
69551;SDS011;58993;45.320;11.864;2022-09-09T04:52:22;6.90;;;2.90;;
69551;SDS011;58993;45.320;11.864;2022-09-09T04:54:47;5.50;;;2.90;;
69551;SDS011;58993;45.320;11.864;2022-09-09T04:57:13;5.30;;;2.90;;
69551;SDS011;58993;45.320;11.864;2022-09-09T04:59:39;5.90;;;3.10;;
69551;SDS011;58993;45.320;11.864;2022-09-09T05:02:04;6.00;;;2.50;;
69551;SDS011;58993;45.320;11.864;2022-09-09T05:04:31;7.10;;;2.70;;
69551;SDS011;58993;45.320;11.864;2022-09-09T05:06:56;4.00;;;2.60;;
69551;SDS011;58993;45.320;11.864;2022-09-09T05:09:22;5.00;;;2.80;;
69551;SDS011;58993;45.320;11.864;2022-09-09T05:11:47;6.20;;;2.80;;
69551;SDS011;58993;45.320;11.864;2022-09-09T05:14:14;5.50;;;2.90;;
69551;SDS011;58993;45.320;11.864;2022-09-09T05:16:40;5.40;;;2.30;;
69551;SDS011;58993;45.320;11.864;2022-09-09T05:19:05;7.90;;;2.60;;
69551;SDS011;58993;45.320;11.864;2022-09-09T05:21:33;8.90;;;2.60;;
69551;SDS011;58993;45.320;11.864;2022-09-09T05:23:59;5.60;;;2.70;;
69551;SDS011;58993;45.320;11.864;2022-09-09T05:26:25;7.20;;;2.40;;
69551;SDS011;58993;45.320;11.864;2022-09-09T05:28:51;7.30;;;2.70;;
69551;SDS011;58993;45.320;11.864;2022-09-09T05:31:17;5.00;;;2.50;;
69551;SDS011;58993;45.320;11.864;2022-09-09T05:33:44;5.20;;;2.10;;
69551;SDS011;58993;45.320;11.864;2022-09-09T05:36:12;7.70;;;2.50;;
69551;SDS011;58993;45.320;11.864;2022-09-09T05:38:39;6.90;;;2.40;;
69551;SDS011;58993;45.320;11.864;2022-09-09T05:41:05;11.60;;;3.00;;
69551;SDS011;58993;45.320;11.864;2022-09-09T05:43:32;6.70;;;2.50;;
69551;SDS011;58993;45.320;11.864;2022-09-09T05:46:07;7.40;;;2.50;;
69551;SDS011;58993;45.320;11.864;2022-09-09T05:48:35;5.40;;;2.50;;
69551;SDS011;58993;45.320;11.864;2022-09-09T05:51:02;6.80;;;2.70;;
69551;SDS011;58993;45.320;11.864;2022-09-09T05:53:29;4.80;;;2.40;;
69551;SDS011;58993;45.320;11.864;2022-09-09T05:58:29;5.90;;;2.60;;
69551;SDS011;58993;45.320;11.864;2022-09-09T06:01:10;4.60;;;2.40;;
69551;SDS011;58993;45.320;11.864;2022-09-09T06:03:39;4.80;;;2.40;;
69551;SDS011;58993;45.320;11.864;2022-09-09T06:06:07;4.10;;;2.50;;
69551;SDS011;58993;45.320;11.864;2022-09-09T06:08:35;5.00;;;2.60;;
69551;SDS011;58993;45.320;11.864;2022-09-09T06:11:04;5.80;;;2.70;;
69551;SDS011;58993;45.320;11.864;2022-09-09T06:13:34;4.70;;;2.40;;
69551;SDS011;58993;45.320;11.864;2022-09-09T06:16:02;7.10;;;2.60;;
69551;SDS011;58993;45.320;11.864;2022-09-09T06:18:29;5.30;;;2.70;;
69551;SDS011;58993;45.320;11.864;2022-09-09T06:20:58;5.10;;;2.50;;
69551;SDS011;58993;45.320;11.864;2022-09-09T06:23:26;6.00;;;2.90;;
69551;SDS011;58993;45.320;11.864;2022-09-09T06:28:32;6.20;;;3.20;;
69551;SDS011;58993;45.320;11.864;2022-09-09T06:30:59;5.60;;;2.70;;
69551;SDS011;58993;45.320;11.864;2022-09-09T06:33:25;7.40;;;3.00;;
69551;SDS011;58993;45.320;11.864;2022-09-09T06:35:51;6.00;;;3.00;;
69551;SDS011;58993;45.320;11.864;2022-09-09T06:38:18;8.60;;;3.20;;
69551;SDS011;58993;45.320;11.864;2022-09-09T06:40:50;8.20;;;3.00;;
69551;SDS011;58993;45.320;11.864;2022-09-09T06:43:22;7.30;;;3.10;;
69551;SDS011;58993;45.320;11.864;2022-09-09T06:45:55;8.00;;;3.10;;
69551;SDS011;58993;45.320;11.864;2022-09-09T06:48:24;8.80;;;3.30;;
69551;SDS011;58993;45.320;11.864;2022-09-09T06:50:59;6.80;;;2.90;;
69551;SDS011;58993;45.320;11.864;2022-09-09T06:53:26;9.10;;;3.50;;
69551;SDS011;58993;45.320;11.864;2022-09-09T06:55:52;6.80;;;3.30;;
69551;SDS011;58993;45.320;11.864;2022-09-09T06:58:18;7.60;;;2.90;;
69551;SDS011;58993;45.320;11.864;2022-09-09T07:00:43;7.50;;;3.70;;
69551;SDS011;58993;45.320;11.864;2022-09-09T07:03:09;6.50;;;3.30;;
69551;SDS011;58993;45.320;11.864;2022-09-09T07:05:35;5.50;;;3.00;;
69551;SDS011;58993;45.320;11.864;2022-09-09T07:08:01;9.40;;;3.30;;
69551;SDS011;58993;45.320;11.864;2022-09-09T07:10:27;5.90;;;3.20;;
69551;SDS011;58993;45.320;11.864;2022-09-09T07:12:53;10.60;;;3.40;;
69551;SDS011;58993;45.320;11.864;2022-09-09T07:15:18;8.50;;;3.40;;
69551;SDS011;58993;45.320;11.864;2022-09-09T07:17:44;8.70;;;3.40;;
69551;SDS011;58993;45.320;11.864;2022-09-09T07:20:10;9.60;;;3.30;;
69551;SDS011;58993;45.320;11.864;2022-09-09T07:22:37;6.90;;;3.10;;
69551;SDS011;58993;45.320;11.864;2022-09-09T07:25:03;9.20;;;3.80;;
69551;SDS011;58993;45.320;11.864;2022-09-09T07:27:29;9.40;;;3.50;;
69551;SDS011;58993;45.320;11.864;2022-09-09T07:29:55;6.00;;;2.90;;
69551;SDS011;58993;45.320;11.864;2022-09-09T07:32:20;8.30;;;3.10;;
69551;SDS011;58993;45.320;11.864;2022-09-09T07:34:46;6.90;;;3.00;;
69551;SDS011;58993;45.320;11.864;2022-09-09T07:37:12;9.10;;;3.40;;
69551;SDS011;58993;45.320;11.864;2022-09-09T07:39:38;6.40;;;3.30;;
69551;SDS011;58993;45.320;11.864;2022-09-09T07:42:04;8.00;;;3.30;;
69551;SDS011;58993;45.320;11.864;2022-09-09T07:44:30;8.60;;;3.30;;
69551;SDS011;58993;45.320;11.864;2022-09-09T07:46:59;7.30;;;3.40;;
69551;SDS011;58993;45.320;11.864;2022-09-09T07:49:26;8.50;;;3.10;;
69551;SDS011;58993;45.320;11.864;2022-09-09T07:51:52;8.10;;;3.50;;
69551;SDS011;58993;45.320;11.864;2022-09-09T07:54:18;10.70;;;3.40;;
69551;SDS011;58993;45.320;11.864;2022-09-09T07:56:48;9.80;;;3.30;;
69551;SDS011;58993;45.320;11.864;2022-09-09T07:59:15;7.00;;;3.30;;
69551;SDS011;58993;45.320;11.864;2022-09-09T08:01:45;8.60;;;3.20;;
69551;SDS011;58993;45.320;11.864;2022-09-09T08:04:14;7.10;;;3.10;;
69551;SDS011;58993;45.320;11.864;2022-09-09T08:06:46;6.80;;;3.20;;
69551;SDS011;58993;45.320;11.864;2022-09-09T08:09:14;5.90;;;3.00;;
69551;SDS011;58993;45.320;11.864;2022-09-09T08:11:40;9.00;;;3.10;;
69551;SDS011;58993;45.320;11.864;2022-09-09T08:14:07;7.20;;;3.20;;
69551;SDS011;58993;45.320;11.864;2022-09-09T08:16:34;10.50;;;3.20;;
69551;SDS011;58993;45.320;11.864;2022-09-09T08:19:02;11.50;;;3.40;;
69551;SDS011;58993;45.320;11.864;2022-09-09T08:21:29;6.70;;;2.90;;
69551;SDS011;58993;45.320;11.864;2022-09-09T08:23:58;7.70;;;3.10;;
69551;SDS011;58993;45.320;11.864;2022-09-09T08:26:26;8.00;;;3.10;;
69551;SDS011;58993;45.320;11.864;2022-09-09T08:28:56;6.90;;;2.90;;
69551;SDS011;58993;45.320;11.864;2022-09-09T08:31:33;6.70;;;3.10;;
69551;SDS011;58993;45.320;11.864;2022-09-09T08:34:01;6.80;;;3.40;;
69551;SDS011;58993;45.320;11.864;2022-09-09T08:36:29;8.50;;;2.90;;
69551;SDS011;58993;45.320;11.864;2022-09-09T08:38:58;8.90;;;3.00;;
69551;SDS011;58993;45.320;11.864;2022-09-09T08:41:34;9.50;;;2.90;;
69551;SDS011;58993;45.320;11.864;2022-09-09T08:52:14;7.90;;;2.70;;
69551;SDS011;58993;45.320;11.864;2022-09-09T08:54:44;10.10;;;3.40;;
69551;SDS011;58993;45.320;11.864;2022-09-09T08:57:13;6.80;;;3.00;;
69551;SDS011;58993;45.320;11.864;2022-09-09T08:59:44;6.00;;;2.70;;
69551;SDS011;58993;45.320;11.864;2022-09-09T09:02:27;10.70;;;3.00;;
69551;SDS011;58993;45.320;11.864;2022-09-09T09:10:29;7.20;;;3.00;;
69551;SDS011;58993;45.320;11.864;2022-09-09T09:13:07;9.00;;;3.20;;
69551;SDS011;58993;45.320;11.864;2022-09-09T09:15:38;8.10;;;3.10;;
69551;SDS011;58993;45.320;11.864;2022-09-09T09:18:05;10.00;;;3.10;;
69551;SDS011;58993;45.320;11.864;2022-09-09T09:20:46;5.90;;;3.10;;
69551;SDS011;58993;45.320;11.864;2022-09-09T09:23:26;7.10;;;3.10;;
69551;SDS011;58993;45.320;11.864;2022-09-09T09:26:01;11.40;;;3.20;;
69551;SDS011;58993;45.320;11.864;2022-09-09T09:28:29;11.40;;;3.60;;
69551;SDS011;58993;45.320;11.864;2022-09-09T09:31:01;10.30;;;3.40;;
69551;SDS011;58993;45.320;11.864;2022-09-09T09:36:06;6.60;;;3.00;;
69551;SDS011;58993;45.320;11.864;2022-09-09T09:38:34;7.80;;;3.00;;
69551;SDS011;58993;45.320;11.864;2022-09-09T09:41:00;8.30;;;2.80;;
69551;SDS011;58993;45.320;11.864;2022-09-09T09:43:35;7.30;;;3.00;;
69551;SDS011;58993;45.320;11.864;2022-09-09T09:46:05;8.40;;;3.00;;
69551;SDS011;58993;45.320;11.864;2022-09-09T09:48:43;6.60;;;3.00;;
69551;SDS011;58993;45.320;11.864;2022-09-09T09:51:09;8.70;;;2.90;;
69551;SDS011;58993;45.320;11.864;2022-09-09T09:53:40;6.90;;;2.90;;
69551;SDS011;58993;45.320;11.864;2022-09-09T09:56:07;6.20;;;2.60;;
69551;SDS011;58993;45.320;11.864;2022-09-09T10:04:15;11.20;;;2.80;;
69551;SDS011;58993;45.320;11.864;2022-09-09T10:06:43;8.30;;;3.10;;
69551;SDS011;58993;45.320;11.864;2022-09-09T10:09:25;5.60;;;2.70;;
69551;SDS011;58993;45.320;11.864;2022-09-09T10:15:35;9.40;;;2.80;;
69551;SDS011;58993;45.320;11.864;2022-09-09T10:20:59;7.00;;;3.20;;
69551;SDS011;58993;45.320;11.864;2022-09-09T10:34:39;5.80;;;2.50;;
69551;SDS011;58993;45.320;11.864;2022-09-09T10:48:42;8.40;;;2.80;;
69551;SDS011;58993;45.320;11.864;2022-09-09T10:56:27;6.80;;;2.70;;
69551;SDS011;58993;45.320;11.864;2022-09-09T11:01:23;40.50;;;9.40;;
69551;SDS011;58993;45.320;11.864;2022-09-09T11:03:54;46.30;;;10.40;;
69551;SDS011;58993;45.320;11.864;2022-09-09T11:06:25;33.30;;;8.40;;
69551;SDS011;58993;45.320;11.864;2022-09-09T11:08:57;30.90;;;7.50;;
69551;SDS011;58993;45.320;11.864;2022-09-09T11:11:30;18.00;;;5.30;;
69551;SDS011;58993;45.320;11.864;2022-09-09T11:14:00;20.50;;;5.70;;
69551;SDS011;58993;45.320;11.864;2022-09-09T11:16:52;17.40;;;4.70;;
69551;SDS011;58993;45.320;11.864;2022-09-09T11:19:26;16.20;;;4.20;;
69551;SDS011;58993;45.320;11.864;2022-09-09T11:24:41;15.40;;;3.30;;
69551;SDS011;58993;45.320;11.864;2022-09-09T11:40:24;5.70;;;1.60;;
69551;SDS011;58993;45.320;11.864;2022-09-09T11:43:04;4.90;;;1.60;;
69551;SDS011;58993;45.320;11.864;2022-09-09T11:45:49;3.70;;;1.50;;
69551;SDS011;58993;45.320;11.864;2022-09-09T11:51:05;1.90;;;1.10;;
69551;SDS011;58993;45.320;11.864;2022-09-09T11:53:47;2.30;;;1.20;;
69551;SDS011;58993;45.320;11.864;2022-09-09T11:56:32;2.70;;;0.90;;
69551;SDS011;58993;45.320;11.864;2022-09-09T11:59:25;3.10;;;1.10;;
69551;SDS011;58993;45.320;11.864;2022-09-09T12:02:22;3.90;;;1.20;;
69551;SDS011;58993;45.320;11.864;2022-09-09T12:07:51;2.70;;;1.00;;
69551;SDS011;58993;45.320;11.864;2022-09-09T12:10:32;3.90;;;1.60;;
69551;SDS011;58993;45.320;11.864;2022-09-09T12:13:15;3.10;;;1.20;;
69551;SDS011;58993;45.320;11.864;2022-09-09T12:16:02;3.50;;;0.90;;
69551;SDS011;58993;45.320;11.864;2022-09-09T12:21:07;5.60;;;1.50;;
69551;SDS011;58993;45.320;11.864;2022-09-09T12:31:34;4.30;;;1.30;;
69551;SDS011;58993;45.320;11.864;2022-09-09T12:37:27;6.70;;;1.30;;
69551;SDS011;58993;45.320;11.864;2022-09-09T12:39:59;3.80;;;1.30;;
69551;SDS011;58993;45.320;11.864;2022-09-09T12:42:27;5.40;;;1.50;;
69551;SDS011;58993;45.320;11.864;2022-09-09T12:44:57;5.10;;;1.40;;
69551;SDS011;58993;45.320;11.864;2022-09-09T12:47:34;6.60;;;1.50;;
69551;SDS011;58993;45.320;11.864;2022-09-09T12:50:18;2.00;;;1.10;;
69551;SDS011;58993;45.320;11.864;2022-09-09T12:52:50;3.60;;;1.40;;
69551;SDS011;58993;45.320;11.864;2022-09-09T12:55:24;2.90;;;1.00;;
69551;SDS011;58993;45.320;11.864;2022-09-09T12:57:55;2.70;;;1.00;;
69551;SDS011;58993;45.320;11.864;2022-09-09T13:00:23;2.20;;;1.00;;
69551;SDS011;58993;45.320;11.864;2022-09-09T13:02:53;2.20;;;1.20;;
69551;SDS011;58993;45.320;11.864;2022-09-09T13:05:24;3.70;;;1.30;;
69551;SDS011;58993;45.320;11.864;2022-09-09T13:08:00;6.80;;;1.60;;
69551;SDS011;58993;45.320;11.864;2022-09-09T13:10:34;5.50;;;1.50;;
69551;SDS011;58993;45.320;11.864;2022-09-09T13:13:04;3.20;;;1.50;;
69551;SDS011;58993;45.320;11.864;2022-09-09T13:15:37;3.50;;;1.50;;
69551;SDS011;58993;45.320;11.864;2022-09-09T13:18:04;4.40;;;1.60;;
69551;SDS011;58993;45.320;11.864;2022-09-09T13:20:36;2.70;;;1.50;;
69551;SDS011;58993;45.320;11.864;2022-09-09T13:23:02;4.00;;;1.60;;
69551;SDS011;58993;45.320;11.864;2022-09-09T13:25:28;4.30;;;1.20;;
69551;SDS011;58993;45.320;11.864;2022-09-09T13:28:01;2.40;;;1.40;;
69551;SDS011;58993;45.320;11.864;2022-09-09T13:30:29;4.70;;;1.40;;
69551;SDS011;58993;45.320;11.864;2022-09-09T13:35:30;3.30;;;1.30;;
69551;SDS011;58993;45.320;11.864;2022-09-09T13:37:56;3.10;;;1.30;;
69551;SDS011;58993;45.320;11.864;2022-09-09T13:40:24;2.80;;;1.10;;
69551;SDS011;58993;45.320;11.864;2022-09-09T13:42:56;3.70;;;1.30;;
69551;SDS011;58993;45.320;11.864;2022-09-09T13:45:24;1.60;;;1.20;;
69551;SDS011;58993;45.320;11.864;2022-09-09T13:47:54;4.10;;;1.10;;
69551;SDS011;58993;45.320;11.864;2022-09-09T13:50:22;2.50;;;1.10;;
69551;SDS011;58993;45.320;11.864;2022-09-09T13:52:51;2.40;;;1.10;;
69551;SDS011;58993;45.320;11.864;2022-09-09T13:55:18;3.80;;;1.30;;
69551;SDS011;58993;45.320;11.864;2022-09-09T13:58:02;5.00;;;1.40;;
69551;SDS011;58993;45.320;11.864;2022-09-09T14:00:30;4.50;;;1.50;;
69551;SDS011;58993;45.320;11.864;2022-09-09T14:02:57;3.00;;;1.20;;
69551;SDS011;58993;45.320;11.864;2022-09-09T14:05:27;3.50;;;1.10;;
69551;SDS011;58993;45.320;11.864;2022-09-09T14:07:53;4.70;;;1.20;;
69551;SDS011;58993;45.320;11.864;2022-09-09T14:10:19;1.90;;;1.00;;
69551;SDS011;58993;45.320;11.864;2022-09-09T14:12:45;2.00;;;0.90;;
69551;SDS011;58993;45.320;11.864;2022-09-09T14:15:11;5.40;;;1.10;;
69551;SDS011;58993;45.320;11.864;2022-09-09T14:17:38;3.20;;;1.20;;
69551;SDS011;58993;45.320;11.864;2022-09-09T14:20:04;3.30;;;1.10;;
69551;SDS011;58993;45.320;11.864;2022-09-09T14:22:33;1.30;;;0.80;;
69551;SDS011;58993;45.320;11.864;2022-09-09T14:25:00;3.00;;;1.00;;
69551;SDS011;58993;45.320;11.864;2022-09-09T14:27:26;3.50;;;1.10;;
69551;SDS011;58993;45.320;11.864;2022-09-09T14:29:51;3.10;;;1.10;;
69551;SDS011;58993;45.320;11.864;2022-09-09T14:32:17;2.30;;;0.90;;
69551;SDS011;58993;45.320;11.864;2022-09-09T14:34:43;2.30;;;1.20;;
69551;SDS011;58993;45.320;11.864;2022-09-09T14:37:09;6.30;;;1.40;;
69551;SDS011;58993;45.320;11.864;2022-09-09T14:39:35;3.80;;;1.20;;
69551;SDS011;58993;45.320;11.864;2022-09-09T14:42:00;2.60;;;1.20;;
69551;SDS011;58993;45.320;11.864;2022-09-09T14:44:27;2.30;;;1.20;;
69551;SDS011;58993;45.320;11.864;2022-09-09T14:46:52;3.60;;;1.50;;
69551;SDS011;58993;45.320;11.864;2022-09-09T14:49:19;3.00;;;1.20;;
69551;SDS011;58993;45.320;11.864;2022-09-09T14:51:45;3.20;;;1.40;;
69551;SDS011;58993;45.320;11.864;2022-09-09T14:54:11;3.70;;;1.80;;
69551;SDS011;58993;45.320;11.864;2022-09-09T14:56:37;3.80;;;1.40;;
69551;SDS011;58993;45.320;11.864;2022-09-09T14:59:03;3.40;;;1.60;;
69551;SDS011;58993;45.320;11.864;2022-09-09T15:01:30;4.40;;;1.30;;
69551;SDS011;58993;45.320;11.864;2022-09-09T15:03:58;2.10;;;1.40;;
69551;SDS011;58993;45.320;11.864;2022-09-09T15:06:26;2.90;;;1.30;;
69551;SDS011;58993;45.320;11.864;2022-09-09T15:08:54;5.20;;;1.60;;
69551;SDS011;58993;45.320;11.864;2022-09-09T15:11:23;2.90;;;1.80;;
69551;SDS011;58993;45.320;11.864;2022-09-09T15:13:50;4.90;;;1.50;;
69551;SDS011;58993;45.320;11.864;2022-09-09T15:16:18;4.50;;;1.50;;
69551;SDS011;58993;45.320;11.864;2022-09-09T15:18:45;3.10;;;1.80;;
69551;SDS011;58993;45.320;11.864;2022-09-09T15:21:18;3.00;;;1.40;;
69551;SDS011;58993;45.320;11.864;2022-09-09T15:23:46;5.50;;;1.50;;
69551;SDS011;58993;45.320;11.864;2022-09-09T15:26:13;3.40;;;1.30;;
69551;SDS011;58993;45.320;11.864;2022-09-09T15:28:42;3.90;;;1.70;;
69551;SDS011;58993;45.320;11.864;2022-09-09T15:33:36;2.10;;;1.30;;
69551;SDS011;58993;45.320;11.864;2022-09-09T15:38:43;3.60;;;1.20;;
69551;SDS011;58993;45.320;11.864;2022-09-09T15:41:09;2.30;;;1.40;;
69551;SDS011;58993;45.320;11.864;2022-09-09T15:43:35;5.30;;;1.50;;
69551;SDS011;58993;45.320;11.864;2022-09-09T15:46:06;3.00;;;1.40;;
69551;SDS011;58993;45.320;11.864;2022-09-09T15:48:42;2.80;;;1.30;;
69551;SDS011;58993;45.320;11.864;2022-09-09T15:51:09;3.30;;;1.50;;
69551;SDS011;58993;45.320;11.864;2022-09-09T15:53:36;4.50;;;1.20;;
69551;SDS011;58993;45.320;11.864;2022-09-09T15:56:05;3.90;;;1.40;;
69551;SDS011;58993;45.320;11.864;2022-09-09T15:58:32;2.40;;;1.40;;
69551;SDS011;58993;45.320;11.864;2022-09-09T16:01:05;2.30;;;1.30;;
69551;SDS011;58993;45.320;11.864;2022-09-09T16:03:40;3.40;;;1.30;;
69551;SDS011;58993;45.320;11.864;2022-09-09T16:06:07;5.00;;;1.20;;
69551;SDS011;58993;45.320;11.864;2022-09-09T16:08:35;3.20;;;1.30;;
69551;SDS011;58993;45.320;11.864;2022-09-09T16:11:04;1.90;;;1.40;;
69551;SDS011;58993;45.320;11.864;2022-09-09T16:13:35;1.90;;;1.10;;
69551;SDS011;58993;45.320;11.864;2022-09-09T16:16:02;3.80;;;1.50;;
69551;SDS011;58993;45.320;11.864;2022-09-09T16:18:33;4.20;;;1.40;;
69551;SDS011;58993;45.320;11.864;2022-09-09T16:21:04;5.30;;;1.50;;
69551;SDS011;58993;45.320;11.864;2022-09-09T16:23:33;4.00;;;1.70;;
69551;SDS011;58993;45.320;11.864;2022-09-09T16:26:00;4.20;;;1.30;;
69551;SDS011;58993;45.320;11.864;2022-09-09T16:28:26;3.30;;;1.50;;
69551;SDS011;58993;45.320;11.864;2022-09-09T16:30:52;3.20;;;1.50;;
69551;SDS011;58993;45.320;11.864;2022-09-09T16:33:18;2.20;;;1.30;;
69551;SDS011;58993;45.320;11.864;2022-09-09T16:35:43;4.20;;;1.40;;
69551;SDS011;58993;45.320;11.864;2022-09-09T16:38:09;2.90;;;1.30;;
69551;SDS011;58993;45.320;11.864;2022-09-09T16:40:36;3.00;;;1.50;;
69551;SDS011;58993;45.320;11.864;2022-09-09T16:43:05;4.40;;;1.30;;
69551;SDS011;58993;45.320;11.864;2022-09-09T16:45:31;4.10;;;1.40;;
69551;SDS011;58993;45.320;11.864;2022-09-09T16:47:57;3.50;;;1.30;;
69551;SDS011;58993;45.320;11.864;2022-09-09T16:50:25;2.30;;;1.30;;
69551;SDS011;58993;45.320;11.864;2022-09-09T16:52:51;5.10;;;1.60;;
69551;SDS011;58993;45.320;11.864;2022-09-09T16:55:17;3.00;;;1.60;;
69551;SDS011;58993;45.320;11.864;2022-09-09T16:57:45;5.20;;;1.80;;
69551;SDS011;58993;45.320;11.864;2022-09-09T17:00:14;3.30;;;1.50;;
69551;SDS011;58993;45.320;11.864;2022-09-09T17:02:41;4.50;;;1.80;;
69551;SDS011;58993;45.320;11.864;2022-09-09T17:05:08;3.10;;;1.60;;
69551;SDS011;58993;45.320;11.864;2022-09-09T17:07:34;3.40;;;1.80;;
69551;SDS011;58993;45.320;11.864;2022-09-09T17:10:00;4.40;;;1.50;;
69551;SDS011;58993;45.320;11.864;2022-09-09T17:12:27;5.00;;;1.50;;
69551;SDS011;58993;45.320;11.864;2022-09-09T17:14:52;3.40;;;1.60;;
69551;SDS011;58993;45.320;11.864;2022-09-09T17:17:20;3.80;;;1.80;;
69551;SDS011;58993;45.320;11.864;2022-09-09T17:19:46;3.30;;;1.50;;
69551;SDS011;58993;45.320;11.864;2022-09-09T17:22:12;3.30;;;1.60;;
69551;SDS011;58993;45.320;11.864;2022-09-09T17:24:37;4.40;;;1.70;;
69551;SDS011;58993;45.320;11.864;2022-09-09T17:27:03;2.70;;;1.50;;
69551;SDS011;58993;45.320;11.864;2022-09-09T17:29:29;2.80;;;1.60;;
69551;SDS011;58993;45.320;11.864;2022-09-09T17:31:55;3.40;;;1.40;;
69551;SDS011;58993;45.320;11.864;2022-09-09T17:34:21;6.20;;;1.50;;
69551;SDS011;58993;45.320;11.864;2022-09-09T17:36:47;5.40;;;1.80;;
69551;SDS011;58993;45.320;11.864;2022-09-09T17:39:13;5.40;;;1.80;;
69551;SDS011;58993;45.320;11.864;2022-09-09T17:41:39;3.10;;;1.60;;
69551;SDS011;58993;45.320;11.864;2022-09-09T17:44:05;6.30;;;2.00;;